createdAt,value
2023-09-23T00:00:16.704Z,11.65
2023-09-23T00:05:04.225Z,11.64
2023-09-23T00:09:54.109Z,11.58
2023-09-23T00:14:41.216Z,11.57
2023-09-23T00:19:28.692Z,11.50
2023-09-23T00:24:16.501Z,11.36
2023-09-23T00:29:06.519Z,11.57
2023-09-23T00:33:53.726Z,11.47
2023-09-23T00:38:51.097Z,11.53
2023-09-23T00:43:38.166Z,11.51
2023-09-23T00:48:28.397Z,11.45
2023-09-23T00:53:15.773Z,11.49
2023-09-23T00:58:03.812Z,11.45
2023-09-23T01:02:51.335Z,11.30
2023-09-23T01:07:43.753Z,11.08
2023-09-23T01:12:30.985Z,11.22
2023-09-23T01:17:18.512Z,11.25
2023-09-23T01:22:05.806Z,11.16
2023-09-23T01:26:55.682Z,11.23
2023-09-23T01:31:42.910Z,11.34
2023-09-23T01:36:30.203Z,11.30
2023-09-23T01:41:17.488Z,11.16
2023-09-23T01:46:07.324Z,11.31
2023-09-23T01:50:54.642Z,10.98
2023-09-23T01:55:41.911Z,11.20
2023-09-23T02:00:29.110Z,11.16
2023-09-23T02:05:18.944Z,11.05
2023-09-23T02:10:07.079Z,11.34
2023-09-23T02:14:54.261Z,10.73
2023-09-23T02:19:41.516Z,11.37
2023-09-23T02:24:31.330Z,11.50
2023-09-23T02:29:20.142Z,11.67
2023-09-23T02:34:10.405Z,11.47
2023-09-23T02:38:57.656Z,11.31
2023-09-23T02:43:47.536Z,11.36
2023-09-23T02:48:34.777Z,11.09
2023-09-23T02:53:21.931Z,11.50
2023-09-23T02:58:09.253Z,11.67
2023-09-23T03:03:00.308Z,11.78
2023-09-23T03:07:47.849Z,11.86
2023-09-23T03:12:35.053Z,11.23
2023-09-23T03:17:22.230Z,11.80
2023-09-23T03:22:12.092Z,11.85
2023-09-23T03:27:00.766Z,11.82
2023-09-23T03:31:48.545Z,11.45
2023-09-23T03:36:36.293Z,10.80
2023-09-23T03:41:26.180Z,11.46
2023-09-23T03:46:15.077Z,11.61
2023-09-23T03:51:02.415Z,11.59
2023-09-23T03:55:50.208Z,11.64
2023-09-23T04:00:40.175Z,11.50
2023-09-23T04:05:27.456Z,11.52
2023-09-23T04:10:14.771Z,11.17
2023-09-23T04:15:02.057Z,11.38
2023-09-23T04:19:53.191Z,11.38
2023-09-23T04:24:40.338Z,11.53
2023-09-23T04:29:27.555Z,11.51
2023-09-23T04:34:14.640Z,11.24
2023-09-23T04:39:04.608Z,11.29
2023-09-23T04:43:51.913Z,11.40
2023-09-23T04:48:39.232Z,11.36
2023-09-23T04:53:26.567Z,11.14
2023-09-23T04:58:16.504Z,11.29
2023-09-23T05:03:03.940Z,11.26
2023-09-23T05:07:51.568Z,10.59
2023-09-23T05:12:38.817Z,11.16
2023-09-23T05:17:28.667Z,11.16
2023-09-23T05:22:15.828Z,11.32
2023-09-23T05:27:03.042Z,11.32
2023-09-23T05:31:50.399Z,11.24
2023-09-23T05:36:40.225Z,11.40
2023-09-23T05:41:27.457Z,11.36
2023-09-23T05:46:14.764Z,11.38
2023-09-23T05:51:05.496Z,11.46
2023-09-23T05:55:55.234Z,11.40
2023-09-23T06:00:42.479Z,11.28
2023-09-23T06:05:35.912Z,11.51
2023-09-23T06:10:25.742Z,11.55
2023-09-23T06:15:15.679Z,11.44
2023-09-23T06:20:03.236Z,11.59
2023-09-23T06:24:50.598Z,11.45
2023-09-23T06:29:37.756Z,11.77
2023-09-23T06:34:27.523Z,11.82
2023-09-23T06:39:14.703Z,11.69
2023-09-23T06:44:01.950Z,11.82
2023-09-23T06:48:49.216Z,11.80
2023-09-23T06:53:39.021Z,11.76
2023-09-23T06:58:26.253Z,11.79
2023-09-23T07:03:13.719Z,11.66
2023-09-23T07:08:01.106Z,11.85
2023-09-23T07:12:50.989Z,11.94
2023-09-23T07:17:38.498Z,12.04
2023-09-23T07:22:25.915Z,12.25
2023-09-23T07:27:13.126Z,12.23
2023-09-23T07:32:03.175Z,12.13
2023-09-23T07:36:50.507Z,11.99
2023-09-23T07:41:40.034Z,12.16
2023-09-23T07:46:27.412Z,12.21
2023-09-23T07:51:17.430Z,12.90
2023-09-23T07:56:07.391Z,12.65
2023-09-23T08:00:56.683Z,12.36
2023-09-23T08:05:45.369Z,12.65
2023-09-23T08:10:35.270Z,12.87
2023-09-23T08:15:26.145Z,12.78
2023-09-23T08:20:15.483Z,13.11
2023-09-23T08:25:03.278Z,13.38
2023-09-23T08:29:53.933Z,13.05
2023-09-23T08:34:41.320Z,13.15
2023-09-23T08:39:28.582Z,13.09
2023-09-23T08:44:21.820Z,13.61
2023-09-23T08:49:30.420Z,13.53
2023-09-23T08:54:20.108Z,13.74
2023-09-23T08:59:08.444Z,14.13
2023-09-23T09:03:55.587Z,14.24
2023-09-23T09:08:48.546Z,14.73
2023-09-23T09:13:37.883Z,15.11
2023-09-23T09:18:25.357Z,15.32
2023-09-23T09:23:13.359Z,15.29
2023-09-23T09:28:05.017Z,14.99
2023-09-23T09:32:55.981Z,15.12
2023-09-23T09:37:45.065Z,15.05
2023-09-23T09:42:32.437Z,15.01
2023-09-23T09:47:23.234Z,15.38
2023-09-23T09:52:10.631Z,16.01
2023-09-23T09:56:57.804Z,16.16
2023-09-23T10:01:45.005Z,15.72
2023-09-23T10:06:40.588Z,15.31
2023-09-23T10:11:31.562Z,14.91
2023-09-23T10:16:19.142Z,14.55
2023-09-23T10:21:06.740Z,14.66
2023-09-23T10:25:56.600Z,14.64
2023-09-23T10:30:44.729Z,14.47
2023-09-23T10:35:32.223Z,14.86
2023-09-23T10:40:20.303Z,15.27
2023-09-23T10:45:12.572Z,15.29
2023-09-23T10:50:00.234Z,15.46
2023-09-23T10:54:48.923Z,15.47
2023-09-23T10:59:37.101Z,15.59
2023-09-23T11:04:26.916Z,15.60
2023-09-23T11:09:14.062Z,16.03
2023-09-23T11:14:01.242Z,16.31
2023-09-23T11:18:49.223Z,16.41
2023-09-23T11:23:39.437Z,16.30
2023-09-23T11:28:27.390Z,16.38
2023-09-23T11:33:15.452Z,16.37
2023-09-23T11:38:02.772Z,16.43
2023-09-23T11:42:52.649Z,16.71
2023-09-23T11:47:42.041Z,16.83
2023-09-23T11:52:29.310Z,16.34
2023-09-23T11:57:16.417Z,15.67
2023-09-23T12:02:07.178Z,15.70
2023-09-23T12:07:07.935Z,15.42
2023-09-23T12:11:55.469Z,15.49
2023-09-23T12:16:44.396Z,15.47
2023-09-23T12:21:35.250Z,15.40
2023-09-23T12:26:22.608Z,15.66
2023-09-23T12:31:10.425Z,15.64
2023-09-23T12:36:06.326Z,15.74
2023-09-23T12:40:56.656Z,15.69
2023-09-23T12:45:51.186Z,15.69
2023-09-23T12:50:46.795Z,15.70
2023-09-23T12:55:34.216Z,15.70
2023-09-23T13:00:24.008Z,15.68
2023-09-23T13:05:17.013Z,15.31
2023-09-23T13:10:17.905Z,15.52
2023-09-23T13:15:09.886Z,15.74
2023-09-23T13:20:00.470Z,15.70
2023-09-23T13:24:47.764Z,15.81
2023-09-23T13:29:36.725Z,15.71
2023-09-23T13:35:03.554Z,16.05
2023-09-23T13:39:54.321Z,15.95
2023-09-23T13:44:43.799Z,15.81
2023-09-23T13:49:32.809Z,15.49
2023-09-23T13:54:20.184Z,15.69
2023-09-23T13:59:10.024Z,16.19
2023-09-23T14:03:57.317Z,16.32
2023-09-23T14:08:44.659Z,16.27
2023-09-23T14:13:32.038Z,16.16
2023-09-23T14:18:21.814Z,16.31
2023-09-23T14:23:10.604Z,16.64
2023-09-23T14:27:57.840Z,16.77
2023-09-23T14:32:45.280Z,16.88
2023-09-23T14:37:35.398Z,16.94
2023-09-23T14:42:22.665Z,17.19
2023-09-23T14:47:10.031Z,17.13
2023-09-23T14:51:57.262Z,17.45
2023-09-23T14:56:47.019Z,17.35
2023-09-23T15:01:34.288Z,17.45
2023-09-23T15:06:21.654Z,17.36
2023-09-23T15:11:08.914Z,17.21
2023-09-23T15:16:01.799Z,17.51
2023-09-23T15:20:49.187Z,17.52
2023-09-23T15:25:36.530Z,17.58
2023-09-23T15:30:23.730Z,17.39
2023-09-23T15:35:13.622Z,17.57
2023-09-23T15:40:00.922Z,17.55
2023-09-23T15:44:48.063Z,17.30
2023-09-23T15:49:43.901Z,17.24
2023-09-23T15:54:34.314Z,17.14
2023-09-23T15:59:21.456Z,17.06
2023-09-23T16:04:08.706Z,17.02
2023-09-23T16:08:55.948Z,16.91
2023-09-23T16:13:45.785Z,16.84
2023-09-23T16:18:33.189Z,16.79
2023-09-23T16:23:20.436Z,16.95
2023-09-23T16:28:07.529Z,17.07
2023-09-23T16:32:57.521Z,17.10
2023-09-23T16:37:44.604Z,16.99
2023-09-23T16:42:31.827Z,16.88
2023-09-23T16:47:19.043Z,16.78
2023-09-23T16:52:08.984Z,16.66
2023-09-23T16:56:56.175Z,16.61
2023-09-23T17:01:52.634Z,16.39
2023-09-23T17:06:39.762Z,16.28
2023-09-23T17:11:29.692Z,16.12
2023-09-23T17:16:16.950Z,15.95
2023-09-23T17:21:04.287Z,15.85
2023-09-23T17:25:51.679Z,15.23
2023-09-23T17:30:41.495Z,15.65
2023-09-23T17:35:28.750Z,15.19
2023-09-23T17:40:16.600Z,15.32
2023-09-23T17:45:04.506Z,15.39
2023-09-23T17:49:54.398Z,15.01
2023-09-23T17:54:41.489Z,15.16
2023-09-23T17:59:31.347Z,15.12
2023-09-23T18:04:18.566Z,15.22
2023-09-23T18:09:10.155Z,15.12
2023-09-23T18:13:57.280Z,15.06
2023-09-23T18:18:46.664Z,14.95
2023-09-23T18:23:36.525Z,15.00
2023-09-23T18:28:26.812Z,14.71
2023-09-23T18:33:15.245Z,14.78
2023-09-23T18:38:02.452Z,14.80
2023-09-23T18:42:49.716Z,14.36
2023-09-23T18:47:40.828Z,14.56
2023-09-23T18:52:28.223Z,14.21
2023-09-23T18:57:15.720Z,14.52
2023-09-23T19:02:03.284Z,14.34
2023-09-23T19:06:53.773Z,14.24
2023-09-23T19:11:40.977Z,14.28
2023-09-23T19:16:28.418Z,14.25
2023-09-23T19:21:15.759Z,14.09
2023-09-23T19:26:05.774Z,14.15
2023-09-23T19:30:55.611Z,13.99
2023-09-23T19:35:43.077Z,13.43
2023-09-23T19:40:30.463Z,13.95
2023-09-23T19:45:20.511Z,13.88
2023-09-23T19:50:11.188Z,13.82
2023-09-23T19:54:58.596Z,13.79
2023-09-23T19:59:46.310Z,13.61
2023-09-23T20:04:37.732Z,13.69
2023-09-23T20:09:24.911Z,13.30
2023-09-23T20:14:13.503Z,13.46
2023-09-23T20:19:01.130Z,13.29
2023-09-23T20:23:51.944Z,13.38
2023-09-23T20:28:39.983Z,13.03
2023-09-23T20:33:28.048Z,13.34
2023-09-23T20:38:15.283Z,13.01
2023-09-23T20:43:05.508Z,12.98
2023-09-23T20:47:55.873Z,12.76
2023-09-23T20:52:43.433Z,13.17
2023-09-23T20:57:33.167Z,13.09
2023-09-23T21:02:23.100Z,13.12
2023-09-23T21:07:10.822Z,13.05
2023-09-23T21:11:58.011Z,13.06
2023-09-23T21:16:45.212Z,12.97
2023-09-23T21:21:35.083Z,13.00
2023-09-23T21:26:22.662Z,12.83
2023-09-23T21:31:12.278Z,12.62
2023-09-23T21:35:59.537Z,12.67
2023-09-23T21:40:49.401Z,12.53
2023-09-23T21:45:36.762Z,12.69
2023-09-23T21:50:24.169Z,12.76
2023-09-23T21:55:11.650Z,12.66
2023-09-23T22:00:01.608Z,12.39
2023-09-23T22:04:48.856Z,12.09
2023-09-23T22:09:36.101Z,12.20
2023-09-23T22:14:23.270Z,12.01
2023-09-23T22:19:13.177Z,12.43
2023-09-23T22:24:00.508Z,12.16
2023-09-23T22:28:47.835Z,12.38
2023-09-23T22:33:35.127Z,11.73
2023-09-23T22:38:24.875Z,11.87
2023-09-23T22:43:12.006Z,12.37
2023-09-23T22:47:59.281Z,12.36
2023-09-23T22:52:46.518Z,12.17
2023-09-23T22:57:38.009Z,12.24
2023-09-23T23:02:25.291Z,12.15
2023-09-23T23:07:12.509Z,12.17
2023-09-23T23:12:00.015Z,12.19
2023-09-23T23:16:50.238Z,12.31
2023-09-23T23:21:37.488Z,12.08
2023-09-23T23:26:24.821Z,12.15
2023-09-23T23:31:12.366Z,11.97
2023-09-23T23:36:04.323Z,12.23
2023-09-23T23:40:52.171Z,12.19
2023-09-23T23:45:39.336Z,12.20
2023-09-23T23:50:27.108Z,12.10
2023-09-23T23:55:17.156Z,12.13
